Time;durP1;ratioP1;P1;durP2;ratioP2;P2;SDS_P1;SDS_P2;PMS_P1;PMS_P2;Temp;Humidity;BMP_temperature;BMP_pressure;BME280_temperature;BME280_humidity;BME280_pressure;Samples;Min_cycle;Max_cycle;Signal;HPM_P1;HPM_P2
2023/12/16 00:00:07;;;;;;;;;0.00;0.00;;;;;;;;5099533;27;45209;-71
2023/12/16 00:02:32;;;;;;;;;0.00;0.00;;;;;;;;5100088;27;45259;-71
2023/12/16 00:04:58;;;;;;;;;0.00;0.00;;;;;;;;5099229;27;45407;-71
2023/12/16 00:07:23;;;;;;;;;0.00;0.00;;;;;;;;5099292;27;45597;-71
2023/12/16 00:09:49;;;;;;;;;0.00;0.00;;;;;;;;5099382;27;45354;-71
2023/12/16 00:12:14;;;;;;;;;0.67;0.67;;;;;;;;5099602;27;45417;-71
2023/12/16 00:14:40;;;;;;;;;1.00;1.00;;;;;;;;5098839;27;45976;-71
2023/12/16 00:17:05;;;;;;;;;2.25;2.00;;;;;;;;5098849;27;45348;-71
2023/12/16 00:19:31;;;;;;;;;3.75;3.75;;;;;;;;5099466;27;45519;-71
2023/12/16 00:21:56;;;;;;;;;3.00;3.00;;;;;;;;5099279;27;45324;-71
2023/12/16 00:24:21;;;;;;;;;4.75;4.00;;;;;;;;5098964;27;45496;-71
2023/12/16 00:26:47;;;;;;;;;4.00;4.00;;;;;;;;5098986;27;45311;-71
2023/12/16 00:29:13;;;;;;;;;6.00;4.75;;;;;;;;5098948;27;45464;-71
2023/12/16 00:31:38;;;;;;;;;4.00;4.00;;;;;;;;5099051;27;45448;-71
2023/12/16 00:34:04;;;;;;;;;2.00;1.33;;;;;;;;5099050;27;45868;-71
2023/12/16 00:36:29;;;;;;;;;2.00;2.00;;;;;;;;5098608;27;45451;-71
2023/12/16 00:38:54;;;;;;;;;3.75;1.00;;;;;;;;5098829;27;45482;-71
2023/12/16 00:41:20;;;;;;;;;2.75;2.00;;;;;;;;5098774;27;45544;-71
2023/12/16 00:43:45;;;;;;;;;3.00;2.00;;;;;;;;5098628;27;46105;-71
2023/12/16 00:46:10;;;;;;;;;2.67;2.67;;;;;;;;5098823;27;45287;-71
2023/12/16 00:48:36;;;;;;;;;3.67;3.00;;;;;;;;5098856;27;45557;-71
2023/12/16 00:51:02;;;;;;;;;3.50;3.50;;;;;;;;5099125;27;45393;-71
2023/12/16 00:53:27;;;;;;;;;3.00;2.25;;;;;;;;5098321;27;46226;-71
2023/12/16 00:55:52;;;;;;;;;2.75;2.75;;;;;;;;5097101;27;45315;-71
2023/12/16 00:58:18;;;;;;;;;4.00;4.00;;;;;;;;5098636;27;45579;-71
2023/12/16 01:00:44;;;;;;;;;3.50;3.00;;;;;;;;5098616;27;45221;-71
2023/12/16 01:03:09;;;;;;;;;4.00;3.00;;;;;;;;5098492;27;45577;-71
2023/12/16 01:05:37;;;;;;;;;4.00;4.00;;;;;;;;5098470;27;45468;-71
2023/12/16 01:08:03;;;;;;;;;4.25;4.25;;;;;;;;5097372;27;45467;-71
2023/12/16 01:10:28;;;;;;;;;4.00;3.25;;;;;;;;5098436;27;45306;-71
2023/12/16 01:12:53;;;;;;;;;3.00;3.00;;;;;;;;5098252;27;45495;-71
2023/12/16 01:15:19;;;;;;;;;4.00;3.00;;;;;;;;5098056;27;45304;-71
2023/12/16 01:17:44;;;;;;;;;2.00;2.00;;;;;;;;5098166;27;45543;-71
2023/12/16 01:20:10;;;;;;;;;2.50;2.50;;;;;;;;5098222;27;45247;-71
2023/12/16 01:22:35;;;;;;;;;4.33;3.00;;;;;;;;5098437;27;46013;-71
2023/12/16 01:25:00;;;;;;;;;5.00;4.25;;;;;;;;5098108;27;45463;-71
2023/12/16 01:27:26;;;;;;;;;4.00;4.00;;;;;;;;5098248;27;45429;-71
2023/12/16 01:29:51;;;;;;;;;3.00;3.00;;;;;;;;5098316;27;45192;-71
2023/12/16 01:32:17;;;;;;;;;1.67;1.67;;;;;;;;5097949;27;45372;-71
2023/12/16 01:34:43;;;;;;;;;2.00;2.00;;;;;;;;5097758;27;45558;-71
2023/12/16 01:37:08;;;;;;;;;3.00;2.50;;;;;;;;5098371;27;45673;-71
2023/12/16 01:39:33;;;;;;;;;2.00;1.00;;;;;;;;5098329;27;45377;-71
2023/12/16 01:41:59;;;;;;;;;2.50;1.50;;;;;;;;5097679;27;45440;-71
2023/12/16 01:44:24;;;;;;;;;2.00;2.00;;;;;;;;5096296;27;45256;-70
2023/12/16 01:46:50;;;;;;;;;3.00;2.50;;;;;;;;5097918;27;45446;-71
2023/12/16 01:49:16;;;;;;;;;2.50;2.00;;;;;;;;5097939;27;45470;-71
2023/12/16 01:51:42;;;;;;;;;3.25;3.25;;;;;;;;5097706;27;45364;-71
2023/12/16 01:54:08;;;;;;;;;3.00;3.00;;;;;;;;5100831;27;45510;-71
2023/12/16 01:56:34;;;;;;;;;2.25;2.25;;;;;;;;5101377;27;45318;-71
2023/12/16 01:59:00;;;;;;;;;3.00;3.00;;;;;;;;5101513;27;45390;-70
2023/12/16 02:01:25;;;;;;;;;2.00;2.00;;;;;;;;5101184;27;45452;-70
2023/12/16 02:03:51;;;;;;;;;3.00;2.00;;;;;;;;5101213;27;45380;-71
2023/12/16 02:06:16;;;;;;;;;3.50;3.00;;;;;;;;5101338;27;45364;-71
2023/12/16 02:08:42;;;;;;;;;3.00;2.75;;;;;;;;5101519;27;45292;-71
2023/12/16 02:11:10;;;;;;;;;2.75;2.00;;;;;;;;5101168;27;45331;-71
2023/12/16 02:13:37;;;;;;;;;3.00;2.00;;;;;;;;5101198;27;45438;-71
2023/12/16 02:16:03;;;;;;;;;3.00;2.75;;;;;;;;5100914;27;45293;-71
2023/12/16 02:18:28;;;;;;;;;3.25;2.75;;;;;;;;5101145;27;45191;-71
2023/12/16 02:20:53;;;;;;;;;3.00;2.25;;;;;;;;5100809;27;46043;-70
2023/12/16 02:23:19;;;;;;;;;3.00;3.00;;;;;;;;5101068;27;45315;-71
2023/12/16 02:25:44;;;;;;;;;3.00;3.00;;;;;;;;5101034;27;45650;-71
2023/12/16 02:28:10;;;;;;;;;5.00;3.00;;;;;;;;5101398;27;45329;-71
2023/12/16 02:30:35;;;;;;;;;3.25;3.00;;;;;;;;5100721;27;45870;-71
2023/12/16 02:33:01;;;;;;;;;2.25;1.75;;;;;;;;5100669;27;45490;-70
2023/12/16 02:35:26;;;;;;;;;3.00;2.50;;;;;;;;5100869;27;45559;-71
2023/12/16 02:37:51;;;;;;;;;5.00;2.00;;;;;;;;5101159;27;45665;-71
2023/12/16 02:40:17;;;;;;;;;4.50;4.00;;;;;;;;5100333;27;45521;-71
2023/12/16 02:42:42;;;;;;;;;4.00;2.25;;;;;;;;5100496;27;45274;-71
2023/12/16 02:45:08;;;;;;;;;5.00;3.00;;;;;;;;5101053;27;45253;-71
2023/12/16 02:47:33;;;;;;;;;2.75;1.50;;;;;;;;5100684;27;45399;-71
2023/12/16 02:49:58;;;;;;;;;2.25;2.00;;;;;;;;5100426;27;45761;-70
2023/12/16 02:52:24;;;;;;;;;2.00;2.00;;;;;;;;5100480;27;45432;-70
2023/12/16 02:54:49;;;;;;;;;2.00;2.00;;;;;;;;5100587;27;45319;-71
2023/12/16 02:57:15;;;;;;;;;4.00;3.25;;;;;;;;5100733;27;45312;-71
2023/12/16 02:59:40;;;;;;;;;6.00;5.00;;;;;;;;5100527;27;45479;-71
2023/12/16 03:02:05;;;;;;;;;4.75;3.75;;;;;;;;5100374;27;45533;-71
2023/12/16 03:04:31;;;;;;;;;2.25;2.00;;;;;;;;5100138;27;45506;-71
2023/12/16 03:06:56;;;;;;;;;4.00;3.00;;;;;;;;5100384;27;45309;-71
2023/12/16 03:09:22;;;;;;;;;2.75;2.50;;;;;;;;5099982;27;45438;-71
2023/12/16 03:11:49;;;;;;;;;2.25;2.25;;;;;;;;5100064;27;45309;-71
2023/12/16 03:14:15;;;;;;;;;3.00;3.00;;;;;;;;5100086;27;45214;-71
2023/12/16 03:16:40;;;;;;;;;3.75;3.75;;;;;;;;5100354;27;45540;-71
2023/12/16 03:19:06;;;;;;;;;3.00;3.00;;;;;;;;5099776;27;46183;-71
2023/12/16 03:21:31;;;;;;;;;2.25;1.75;;;;;;;;5100015;27;45641;-71
2023/12/16 03:23:56;;;;;;;;;1.75;1.75;;;;;;;;5099927;27;45262;-71
2023/12/16 03:26:22;;;;;;;;;2.00;2.00;;;;;;;;5100061;27;45531;-71
2023/12/16 03:28:47;;;;;;;;;2.00;2.00;;;;;;;;5099760;27;45931;-71
2023/12/16 03:31:12;;;;;;;;;2.50;2.00;;;;;;;;5100031;27;45308;-71
2023/12/16 03:33:38;;;;;;;;;3.25;2.00;;;;;;;;5099862;27;45963;-71
2023/12/16 03:36:03;;;;;;;;;2.00;1.00;;;;;;;;5099952;27;45391;-71
2023/12/16 03:38:28;;;;;;;;;1.00;1.00;;;;;;;;5098157;27;46620;-71
2023/12/16 03:40:54;;;;;;;;;1.00;1.00;;;;;;;;5099650;27;45273;-71
2023/12/16 03:43:20;;;;;;;;;1.00;1.00;;;;;;;;5099825;27;45353;-71
2023/12/16 03:45:45;;;;;;;;;2.00;1.25;;;;;;;;5100137;27;45172;-71
2023/12/16 03:48:11;;;;;;;;;1.00;1.00;;;;;;;;5099771;27;45291;-71
2023/12/16 03:50:36;;;;;;;;;0.00;0.00;;;;;;;;5099596;27;45596;-71
2023/12/16 03:53:02;;;;;;;;;1.00;1.00;;;;;;;;5099603;27;45390;-71
2023/12/16 03:55:27;;;;;;;;;1.00;1.00;;;;;;;;5099820;27;45325;-71
2023/12/16 03:57:52;;;;;;;;;1.00;1.00;;;;;;;;5099358;27;45964;-71
2023/12/16 04:00:18;;;;;;;;;2.50;2.00;;;;;;;;5099348;27;45462;-71
2023/12/16 04:02:44;;;;;;;;;2.00;2.00;;;;;;;;5099709;27;45308;-71
2023/12/16 04:05:09;;;;;;;;;3.00;2.00;;;;;;;;5099701;27;45359;-71
2023/12/16 04:07:34;;;;;;;;;1.50;1.50;;;;;;;;5099251;27;45503;-71
2023/12/16 04:10:00;;;;;;;;;2.75;2.75;;;;;;;;5099198;27;45386;-71
2023/12/16 04:12:25;;;;;;;;;2.25;2.00;;;;;;;;5099204;27;45463;-71
2023/12/16 04:14:50;;;;;;;;;3.00;2.00;;;;;;;;5099293;27;45365;-71
2023/12/16 04:17:16;;;;;;;;;1.00;1.00;;;;;;;;5098850;27;46024;-71
2023/12/16 04:19:51;;;;;;;;;2.00;1.00;;;;;;;;5098975;27;45343;-71
2023/12/16 04:22:17;;;;;;;;;4.75;4.50;;;;;;;;5099455;27;45380;-71
2023/12/16 04:24:42;;;;;;;;;3.50;3.50;;;;;;;;5099233;27;45433;-71
2023/12/16 04:27:08;;;;;;;;;4.00;3.00;;;;;;;;5098796;27;45860;-71
2023/12/16 04:29:33;;;;;;;;;14.50;12.00;;;;;;;;5098694;27;45440;-71
2023/12/16 04:31:58;;;;;;;;;12.25;12.25;;;;;;;;5099283;27;45293;-71
2023/12/16 04:34:24;;;;;;;;;19.75;17.75;;;;;;;;5098958;27;45338;-71
2023/12/16 04:36:49;;;;;;;;;11.25;10.50;;;;;;;;5098601;27;45992;-70
2023/12/16 04:39:14;;;;;;;;;25.00;20.25;;;;;;;;5098808;27;45515;-71
2023/12/16 04:41:40;;;;;;;;;13.50;12.00;;;;;;;;5098816;27;45263;-71
2023/12/16 04:44:05;;;;;;;;;11.75;9.00;;;;;;;;5098988;27;45241;-71
2023/12/16 04:46:30;;;;;;;;;4.50;3.00;;;;;;;;5098632;27;45248;-71
2023/12/16 04:48:56;;;;;;;;;2.00;2.00;;;;;;;;5098761;27;45347;-71
2023/12/16 04:51:22;;;;;;;;;2.00;2.00;;;;;;;;5098810;27;45604;-71
2023/12/16 04:53:48;;;;;;;;;2.00;2.00;;;;;;;;5099109;27;45585;-71
2023/12/16 04:56:13;;;;;;;;;2.50;2.00;;;;;;;;5098368;27;46031;-71
2023/12/16 04:58:39;;;;;;;;;3.00;3.00;;;;;;;;5098477;27;45416;-71
2023/12/16 05:01:04;;;;;;;;;16.00;14.50;;;;;;;;5098214;27;45425;-71
2023/12/16 05:03:33;;;;;;;;;19.25;15.00;;;;;;;;5098602;27;45441;-71
2023/12/16 05:05:58;;;;;;;;;4.75;4.00;;;;;;;;5098159;27;45401;-71
2023/12/16 05:08:24;;;;;;;;;6.25;6.25;;;;;;;;5098204;27;45410;-71
2023/12/16 05:10:49;;;;;;;;;3.00;3.00;;;;;;;;5098664;27;45344;-71
2023/12/16 05:13:15;;;;;;;;;5.75;4.00;;;;;;;;5098490;27;45349;-70
2023/12/16 05:15:41;;;;;;;;;4.50;2.25;;;;;;;;5097961;27;45269;-71
2023/12/16 05:18:06;;;;;;;;;4.00;3.00;;;;;;;;5098161;27;45364;-71
2023/12/16 05:20:32;;;;;;;;;12.00;11.00;;;;;;;;5098086;27;45348;-71
2023/12/16 05:22:59;;;;;;;;;14.75;14.75;;;;;;;;5098367;27;45533;-71
2023/12/16 05:25:26;;;;;;;;;18.75;18.50;;;;;;;;5097813;27;45415;-71
2023/12/16 05:27:52;;;;;;;;;17.25;14.00;;;;;;;;5096790;27;45401;-71
2023/12/16 05:30:17;;;;;;;;;9.75;9.25;;;;;;;;5098295;27;45401;-71
2023/12/16 05:32:43;;;;;;;;;9.25;8.25;;;;;;;;5098196;27;45373;-71
2023/12/16 05:35:08;;;;;;;;;12.00;12.00;;;;;;;;5097902;27;46091;-71
2023/12/16 05:37:34;;;;;;;;;9.00;9.00;;;;;;;;5097959;27;45359;-71
2023/12/16 05:39:59;;;;;;;;;10.00;9.00;;;;;;;;5097848;27;45689;-71
2023/12/16 05:42:24;;;;;;;;;3.25;3.25;;;;;;;;5098040;27;45403;-71
2023/12/16 05:44:50;;;;;;;;;3.00;3.00;;;;;;;;5097948;27;45335;-71
2023/12/16 05:47:15;;;;;;;;;3.00;2.00;;;;;;;;5097904;27;45321;-71
2023/12/16 05:49:41;;;;;;;;;2.00;2.00;;;;;;;;5097918;27;45552;-72
2023/12/16 05:52:06;;;;;;;;;1.50;1.50;;;;;;;;5097959;27;45300;-71
2023/12/16 05:54:32;;;;;;;;;2.00;2.00;;;;;;;;5097489;27;45610;-70
2023/12/16 05:56:57;;;;;;;;;3.75;3.75;;;;;;;;5097677;27;45231;-71
2023/12/16 05:59:23;;;;;;;;;2.75;2.75;;;;;;;;5097993;27;45447;-70
2023/12/16 06:01:48;;;;;;;;;3.75;3.75;;;;;;;;5098296;27;45286;-71
2023/12/16 06:04:14;;;;;;;;;2.25;2.00;;;;;;;;5097668;27;45869;-70
2023/12/16 06:06:40;;;;;;;;;3.00;3.00;;;;;;;;5097465;27;45246;-71
2023/12/16 06:09:05;;;;;;;;;3.00;2.00;;;;;;;;5097480;27;45551;-71
2023/12/16 06:11:31;;;;;;;;;3.00;3.00;;;;;;;;5097619;27;45439;-71
2023/12/16 06:13:56;;;;;;;;;12.50;12.00;;;;;;;;5097034;27;45379;-71
2023/12/16 06:16:23;;;;;;;;;4.25;4.25;;;;;;;;5097847;27;45413;-70
2023/12/16 06:18:49;;;;;;;;;7.25;6.50;;;;;;;;5097464;27;45376;-71
2023/12/16 06:21:14;;;;;;;;;7.50;6.75;;;;;;;;5097607;27;45471;-71
2023/12/16 06:23:40;;;;;;;;;14.50;13.00;;;;;;;;5097384;27;45234;-71
2023/12/16 06:26:05;;;;;;;;;8.00;7.75;;;;;;;;5097309;27;45496;-71
2023/12/16 06:28:30;;;;;;;;;4.25;4.25;;;;;;;;5096091;27;46096;-71
2023/12/16 06:30:56;;;;;;;;;3.50;3.50;;;;;;;;5097430;27;45417;-71
2023/12/16 06:33:24;;;;;;;;;17.25;16.25;;;;;;;;5097357;27;45448;-71
2023/12/16 06:35:50;;;;;;;;;21.50;17.75;;;;;;;;5097142;27;45444;-71
2023/12/16 06:38:15;;;;;;;;;20.50;18.25;;;;;;;;5097396;27;45459;-71
2023/12/16 06:40:41;;;;;;;;;20.25;19.75;;;;;;;;5101060;27;45297;-71
2023/12/16 06:43:06;;;;;;;;;18.25;17.25;;;;;;;;5100381;27;45549;-71
2023/12/16 06:45:32;;;;;;;;;21.00;18.50;;;;;;;;5100507;27;45545;-71
2023/12/16 06:47:57;;;;;;;;;15.25;12.25;;;;;;;;5100717;27;45466;-71
2023/12/16 06:50:23;;;;;;;;;6.75;6.75;;;;;;;;5101088;27;45261;-71
2023/12/16 06:52:48;;;;;;;;;19.25;18.50;;;;;;;;5100211;27;46037;-71
2023/12/16 06:55:13;;;;;;;;;20.75;18.25;;;;;;;;5100336;27;45327;-71
2023/12/16 06:57:39;;;;;;;;;10.25;8.50;;;;;;;;5100366;27;45404;-70
2023/12/16 07:00:06;;;;;;;;;6.25;4.75;;;;;;;;5100451;27;45372;-70
2023/12/16 07:02:31;;;;;;;;;10.75;9.25;;;;;;;;5100006;27;46255;-70
2023/12/16 07:04:57;;;;;;;;;11.25;10.50;;;;;;;;5100276;27;45393;-71
2023/12/16 07:07:22;;;;;;;;;10.00;7.00;;;;;;;;5100453;27;45642;-71
2023/12/16 07:09:48;;;;;;;;;6.25;6.00;;;;;;;;5100461;27;45371;-71
2023/12/16 07:12:13;;;;;;;;;10.50;8.75;;;;;;;;5100031;27;45297;-70
2023/12/16 07:14:38;;;;;;;;;15.00;13.25;;;;;;;;5100083;27;45426;-70
2023/12/16 07:17:04;;;;;;;;;12.00;12.00;;;;;;;;5100193;27;45323;-71
2023/12/16 07:19:31;;;;;;;;;16.00;15.25;;;;;;;;5100302;27;45359;-71
2023/12/16 07:21:57;;;;;;;;;13.25;12.00;;;;;;;;5100231;27;45992;-71
2023/12/16 07:24:22;;;;;;;;;15.00;11.25;;;;;;;;5099820;27;45353;-71
2023/12/16 07:26:47;;;;;;;;;26.00;25.25;;;;;;;;5100014;27;45620;-71
2023/12/16 07:29:13;;;;;;;;;48.25;42.00;;;;;;;;5100032;27;45149;-71
2023/12/16 07:31:38;;;;;;;;;16.75;15.00;;;;;;;;5099619;27;45446;-71
2023/12/16 07:34:03;;;;;;;;;21.50;19.75;;;;;;;;5099561;27;45394;-71
2023/12/16 07:36:29;;;;;;;;;56.00;43.25;;;;;;;;5099889;27;45317;-71
2023/12/16 07:38:55;;;;;;;;;28.50;26.00;;;;;;;;5100176;27;45309;-71
2023/12/16 07:41:21;;;;;;;;;25.00;20.25;;;;;;;;5099323;27;45336;-70
2023/12/16 07:43:46;;;;;;;;;17.25;14.75;;;;;;;;5099320;27;45497;-71
2023/12/16 07:46:12;;;;;;;;;21.75;18.00;;;;;;;;5099630;27;45787;-71
2023/12/16 07:48:37;;;;;;;;;35.00;27.75;;;;;;;;5099783;27;45329;-71
2023/12/16 07:51:03;;;;;;;;;23.25;19.25;;;;;;;;5098130;27;45993;-71
2023/12/16 07:53:28;;;;;;;;;21.75;21.00;;;;;;;;5099578;27;45510;-71
2023/12/16 07:55:53;;;;;;;;;21.50;18.50;;;;;;;;5099469;27;45612;-71
2023/12/16 07:58:19;;;;;;;;;23.00;19.00;;;;;;;;5099654;27;45405;-71
2023/12/16 08:00:44;;;;;;;;;26.25;21.50;;;;;;;;5099092;27;45906;-71
2023/12/16 08:03:10;;;;;;;;;22.25;22.00;;;;;;;;5099055;27;45429;-71
2023/12/16 08:05:35;;;;;;;;;23.25;16.00;;;;;;;;5099227;27;45770;-70
2023/12/16 08:08:01;;;;;;;;;14.50;13.25;;;;;;;;5099664;27;45883;-71
2023/12/16 08:10:26;;;;;;;;;18.00;13.00;;;;;;;;5099218;27;45696;-71
2023/12/16 08:12:52;;;;;;;;;15.00;14.25;;;;;;;;5098998;27;45462;-71
2023/12/16 08:15:17;;;;;;;;;22.25;20.75;;;;;;;;5099142;27;45306;-71
2023/12/16 08:17:42;;;;;;;;;21.25;18.25;;;;;;;;5098000;27;45483;-71
2023/12/16 08:20:08;;;;;;;;;18.25;16.00;;;;;;;;5098822;27;45546;-70
2023/12/16 08:22:34;;;;;;;;;35.00;31.25;;;;;;;;5098957;27;45387;-71
2023/12/16 08:24:59;;;;;;;;;30.25;24.25;;;;;;;;5099202;27;45480;-71
2023/12/16 08:27:25;;;;;;;;;28.00;24.50;;;;;;;;5098987;27;45461;-71
2023/12/16 08:29:50;;;;;;;;;23.50;20.00;;;;;;;;5098768;27;45278;-72
2023/12/16 08:32:16;;;;;;;;;26.75;22.25;;;;;;;;5098795;27;45179;-71
2023/12/16 08:34:41;;;;;;;;;21.00;18.75;;;;;;;;5098889;27;45528;-72
2023/12/16 08:37:06;;;;;;;;;25.00;24.00;;;;;;;;5099078;27;45361;-71
2023/12/16 08:39:32;;;;;;;;;32.00;29.75;;;;;;;;5098716;27;46142;-71
2023/12/16 08:41:57;;;;;;;;;30.50;27.00;;;;;;;;5098493;27;45500;-71
2023/12/16 08:44:23;;;;;;;;;32.50;25.25;;;;;;;;5098884;27;45891;-71
2023/12/16 08:46:48;;;;;;;;;29.00;25.00;;;;;;;;5098926;27;45518;-71
2023/12/16 08:49:13;;;;;;;;;35.25;28.75;;;;;;;;5098492;27;46233;-71
2023/12/16 08:51:39;;;;;;;;;32.75;29.25;;;;;;;;5098362;27;45472;-71
2023/12/16 08:54:04;;;;;;;;;44.00;38.50;;;;;;;;5098228;27;45470;-71
2023/12/16 08:56:29;;;;;;;;;31.25;29.25;;;;;;;;5098972;27;45234;-71
2023/12/16 08:58:55;;;;;;;;;35.75;28.25;;;;;;;;5098353;27;45442;-71
2023/12/16 09:01:20;;;;;;;;;56.75;46.00;;;;;;;;5097990;27;45294;-71
2023/12/16 09:03:46;;;;;;;;;24.50;23.00;;;;;;;;5098411;27;45250;-71
2023/12/16 09:06:11;;;;;;;;;29.25;23.50;;;;;;;;5098608;27;45279;-71
2023/12/16 09:08:37;;;;;;;;;18.75;15.50;;;;;;;;5098180;27;45903;-71
2023/12/16 09:11:03;;;;;;;;;21.50;19.50;;;;;;;;5098432;27;45273;-71
2023/12/16 09:13:28;;;;;;;;;27.25;25.75;;;;;;;;5098172;27;45472;-71
2023/12/16 09:15:53;;;;;;;;;24.75;22.25;;;;;;;;5098331;27;45202;-71
2023/12/16 09:18:19;;;;;;;;;16.25;15.00;;;;;;;;5097764;27;46059;-71
2023/12/16 09:20:44;;;;;;;;;19.25;19.00;;;;;;;;5098088;27;45507;-71
2023/12/16 09:23:09;;;;;;;;;9.00;8.75;;;;;;;;5098097;27;45336;-72
2023/12/16 09:25:35;;;;;;;;;10.00;9.25;;;;;;;;5098517;27;45551;-71
2023/12/16 09:28:00;;;;;;;;;13.00;11.50;;;;;;;;5096617;27;45935;-71
2023/12/16 09:30:26;;;;;;;;;10.25;8.75;;;;;;;;5096783;27;45325;-71
2023/12/16 09:32:51;;;;;;;;;23.25;21.75;;;;;;;;5096641;27;45489;-71
2023/12/16 09:35:16;;;;;;;;;18.25;15.75;;;;;;;;5098245;27;45384;-71
2023/12/16 09:37:42;;;;;;;;;19.00;16.00;;;;;;;;5097682;27;45429;-71
2023/12/16 09:40:07;;;;;;;;;14.00;13.00;;;;;;;;5097623;27;45525;-71
2023/12/16 09:42:35;;;;;;;;;8.75;8.75;;;;;;;;5097955;27;45472;-71
2023/12/16 09:45:02;;;;;;;;;11.00;10.00;;;;;;;;5097841;27;45389;-71
2023/12/16 09:47:27;;;;;;;;;14.25;13.00;;;;;;;;5097073;27;46272;-71
2023/12/16 09:49:53;;;;;;;;;11.50;11.50;;;;;;;;5097047;27;45625;-71
2023/12/16 09:52:19;;;;;;;;;13.00;13.00;;;;;;;;5097520;27;45460;-71
2023/12/16 09:54:44;;;;;;;;;32.00;24.50;;;;;;;;5097706;27;45218;-71
2023/12/16 09:57:12;;;;;;;;;13.50;13.00;;;;;;;;5097356;27;45494;-71
2023/12/16 09:59:38;;;;;;;;;16.25;14.75;;;;;;;;5097869;27;45972;-71
2023/12/16 10:02:08;;;;;;;;;23.00;21.25;;;;;;;;5097832;27;45416;-71
2023/12/16 10:04:34;;;;;;;;;17.25;17.00;;;;;;;;5097853;27;45304;-71
2023/12/16 10:06:59;;;;;;;;;16.25;16.25;;;;;;;;5097326;27;46086;-71
2023/12/16 10:09:25;;;;;;;;;19.25;18.00;;;;;;;;5096995;27;45152;-71
2023/12/16 10:11:51;;;;;;;;;26.25;24.75;;;;;;;;5097311;27;45457;-71
2023/12/16 10:14:16;;;;;;;;;13.00;11.00;;;;;;;;5099018;27;45273;-72
2023/12/16 10:16:46;;;;;;;;;27.00;24.00;;;;;;;;5100826;27;46141;-71
2023/12/16 10:19:12;;;;;;;;;17.00;15.00;;;;;;;;5100861;27;45476;-71
2023/12/16 10:21:38;;;;;;;;;21.25;18.75;;;;;;;;5101116;27;45319;-71
2023/12/16 10:24:04;;;;;;;;;16.00;14.00;;;;;;;;5101208;27;45544;-71
2023/12/16 10:26:36;;;;;;;;;13.50;11.75;;;;;;;;5100580;27;45383;-71
2023/12/16 10:29:05;;;;;;;;;18.25;17.00;;;;;;;;5100481;27;45369;-71
2023/12/16 10:31:30;;;;;;;;;17.25;14.75;;;;;;;;5100784;27;45285;-71
2023/12/16 10:33:59;;;;;;;;;19.50;19.00;;;;;;;;5100751;27;45366;-71
2023/12/16 10:36:25;;;;;;;;;21.00;20.00;;;;;;;;5100308;27;45586;-71
2023/12/16 10:38:50;;;;;;;;;20.00;18.50;;;;;;;;5100164;27;45454;-71
2023/12/16 10:41:15;;;;;;;;;23.25;21.25;;;;;;;;5100261;27;45481;-71
2023/12/16 10:43:41;;;;;;;;;19.00;17.75;;;;;;;;5100657;27;45507;-71
2023/12/16 10:46:06;;;;;;;;;19.75;17.75;;;;;;;;5098942;27;45590;-71
2023/12/16 10:48:33;;;;;;;;;14.75;13.25;;;;;;;;5100152;27;45392;-71
2023/12/16 10:51:00;;;;;;;;;15.00;14.75;;;;;;;;5100451;27;45506;-71
2023/12/16 10:53:30;;;;;;;;;20.50;19.25;;;;;;;;5100272;27;45469;-71
2023/12/16 10:56:02;;;;;;;;;12.25;12.00;;;;;;;;5099905;27;45548;-71
2023/12/16 10:58:30;;;;;;;;;21.00;19.00;;;;;;;;5100034;27;45360;-71
2023/12/16 11:01:02;;;;;;;;;20.50;19.25;;;;;;;;5099860;27;45297;-71
2023/12/16 11:03:36;;;;;;;;;29.50;26.25;;;;;;;;5099922;27;45314;-71
2023/12/16 11:06:11;;;;;;;;;31.00;29.00;;;;;;;;5099593;27;46078;-71
2023/12/16 11:08:37;;;;;;;;;19.50;17.50;;;;;;;;5100174;27;45251;-71
2023/12/16 11:11:02;;;;;;;;;25.75;23.50;;;;;;;;5099852;27;45521;-71
2023/12/16 11:13:28;;;;;;;;;23.75;21.25;;;;;;;;5100159;27;45270;-71
2023/12/16 11:15:58;;;;;;;;;22.00;18.75;;;;;;;;5099735;27;45494;-71
2023/12/16 11:18:26;;;;;;;;;16.25;16.00;;;;;;;;5098369;27;45572;-71
2023/12/16 11:20:54;;;;;;;;;17.50;16.50;;;;;;;;5100070;27;45540;-71
2023/12/16 11:23:19;;;;;;;;;19.00;18.25;;;;;;;;5099897;27;45353;-71
2023/12/16 11:25:45;;;;;;;;;17.25;15.25;;;;;;;;5099413;27;45238;-71
2023/12/16 11:28:13;;;;;;;;;19.25;18.00;;;;;;;;5099998;27;45286;-71
2023/12/16 11:30:39;;;;;;;;;16.25;15.50;;;;;;;;5099587;27;45531;-71
2023/12/16 11:33:05;;;;;;;;;8.75;6.50;;;;;;;;5099981;27;45522;-71
2023/12/16 11:35:36;;;;;;;;;6.33;6.00;;;;;;;;5099414;27;45297;-71
2023/12/16 11:38:02;;;;;;;;;14.25;13.00;;;;;;;;5099490;27;45363;-71
2023/12/16 11:40:41;;;;;;;;;0.00;0.00;;;;;;;;5099283;27;45400;-71
2023/12/16 11:43:06;;;;;;;;;3.67;1.33;;;;;;;;5099552;27;45458;-71
2023/12/16 11:45:38;;;;;;;;;1.00;1.00;;;;;;;;5099084;27;45984;-71
2023/12/16 11:48:07;;;;;;;;;1.00;1.00;;;;;;;;5099435;27;45490;-71
2023/12/16 11:50:34;;;;;;;;;0.00;0.00;;;;;;;;5099457;27;45297;-71
2023/12/16 11:53:00;;;;;;;;;1.00;1.00;;;;;;;;5099561;27;45324;-71
2023/12/16 11:55:25;;;;;;;;;2.67;2.67;;;;;;;;5099026;27;45955;-71
2023/12/16 11:57:51;;;;;;;;;1.00;1.00;;;;;;;;5099293;27;45267;-71
2023/12/16 12:00:16;;;;;;;;;1.00;1.00;;;;;;;;5099533;27;45427;-71
2023/12/16 12:02:42;;;;;;;;;1.00;1.00;;;;;;;;5099791;27;45524;-71
2023/12/16 12:05:12;;;;;;;;;1.00;1.00;;;;;;;;5099124;27;45502;-71
2023/12/16 12:07:41;;;;;;;;;0.00;0.00;;;;;;;;5098818;27;45480;-71
2023/12/16 12:10:07;;;;;;;;;0.33;0.33;;;;;;;;5098902;27;45172;-71
2023/12/16 12:12:32;;;;;;;;;0.33;0.33;;;;;;;;5099357;27;45408;-71
2023/12/16 12:14:57;;;;;;;;;1.00;0.00;;;;;;;;5099156;27;45536;-71
2023/12/16 12:17:23;;;;;;;;;0.00;0.00;;;;;;;;5098767;27;45294;-71
2023/12/16 12:19:49;;;;;;;;;0.00;0.00;;;;;;;;5098930;27;45250;-72
2023/12/16 12:22:14;;;;;;;;;0.00;0.00;;;;;;;;5099606;27;45425;-71
2023/12/16 12:24:40;;;;;;;;;1.67;0.67;;;;;;;;5098686;27;45288;-71
2023/12/16 12:27:05;;;;;;;;;0.00;0.00;;;;;;;;5098862;27;45496;-71
2023/12/16 12:29:49;;;;;;;;;1.67;1.67;;;;;;;;5097833;27;45898;-72
2023/12/16 12:32:15;;;;;;;;;0.67;0.33;;;;;;;;5099440;27;45206;-71
2023/12/16 12:34:40;;;;;;;;;0.00;0.00;;;;;;;;5098618;27;45452;-71
2023/12/16 12:37:05;;;;;;;;;0.00;0.00;;;;;;;;5098139;27;45430;-71
2023/12/16 12:39:31;;;;;;;;;0.00;0.00;;;;;;;;5098846;27;45780;-71
2023/12/16 12:42:00;;;;;;;;;0.00;0.00;;;;;;;;5099095;27;45251;-71
2023/12/16 12:44:25;;;;;;;;;0.00;0.00;;;;;;;;5097162;27;45642;-71
2023/12/16 12:46:51;;;;;;;;;0.00;0.00;;;;;;;;5098316;27;45372;-71
2023/12/16 12:49:17;;;;;;;;;0.00;0.00;;;;;;;;5098682;27;45518;-71
2023/12/16 12:51:52;;;;;;;;;0.00;0.00;;;;;;;;5099106;27;45227;-71
2023/12/16 12:54:20;;;;;;;;;1.67;0.67;;;;;;;;5098604;27;45618;-71
2023/12/16 12:56:46;;;;;;;;;0.00;0.00;;;;;;;;5098766;27;45345;-71
2023/12/16 12:59:11;;;;;;;;;0.00;0.00;;;;;;;;5098404;27;45222;-71
2023/12/16 13:01:36;;;;;;;;;1.00;1.00;;;;;;;;5098364;27;45413;-71
2023/12/16 13:04:03;;;;;;;;;0.00;0.00;;;;;;;;5098132;27;45538;-71
2023/12/16 13:06:29;;;;;;;;;0.00;0.00;;;;;;;;5098283;27;45250;-71
2023/12/16 13:08:54;;;;;;;;;1.00;1.00;;;;;;;;5098645;27;45359;-71
2023/12/16 13:11:19;;;;;;;;;0.00;0.00;;;;;;;;5098561;27;45464;-71
2023/12/16 13:13:45;;;;;;;;;1.00;0.00;;;;;;;;5098511;27;46072;-71
2023/12/16 13:16:13;;;;;;;;;2.00;1.00;;;;;;;;5096794;27;45522;-71
2023/12/16 13:18:42;;;;;;;;;1.00;1.00;;;;;;;;5098565;27;45307;-71
2023/12/16 13:21:07;;;;;;;;;1.00;1.00;;;;;;;;5098216;27;45395;-71
2023/12/16 13:23:33;;;;;;;;;1.00;1.00;;;;;;;;5097783;27;46124;-71
2023/12/16 13:25:58;;;;;;;;;0.00;0.00;;;;;;;;5097705;27;45529;-71
2023/12/16 13:28:24;;;;;;;;;0.00;0.00;;;;;;;;5097968;27;45565;-71
2023/12/16 13:30:51;;;;;;;;;2.00;1.00;;;;;;;;5097210;27;45895;-71
2023/12/16 13:33:16;;;;;;;;;0.00;0.00;;;;;;;;5098068;27;46165;-71
2023/12/16 13:35:43;;;;;;;;;1.00;1.00;;;;;;;;5097620;27;45479;-71
2023/12/16 13:38:09;;;;;;;;;0.00;0.00;;;;;;;;5098083;27;45351;-71
2023/12/16 13:40:34;;;;;;;;;1.00;1.00;;;;;;;;5098078;27;45352;-71
2023/12/16 13:43:00;;;;;;;;;1.00;0.00;;;;;;;;5097746;27;45447;-71
2023/12/16 13:45:25;;;;;;;;;0.00;0.00;;;;;;;;5097885;27;45311;-71
2023/12/16 13:47:50;;;;;;;;;1.00;0.33;;;;;;;;5097924;27;45415;-71
2023/12/16 13:50:16;;;;;;;;;1.00;1.00;;;;;;;;5101404;27;45451;-72
2023/12/16 13:52:42;;;;;;;;;1.33;1.00;;;;;;;;5101125;27;45995;-71
2023/12/16 13:55:08;;;;;;;;;1.00;1.00;;;;;;;;5101282;27;45468;-72
2023/12/16 13:57:33;;;;;;;;;1.00;1.00;;;;;;;;5101376;27;45275;-71
2023/12/16 13:59:59;;;;;;;;;3.00;2.00;;;;;;;;5101379;27;45367;-71
2023/12/16 14:02:25;;;;;;;;;1.00;1.00;;;;;;;;5101268;27;45255;-72
2023/12/16 14:04:50;;;;;;;;;2.00;2.00;;;;;;;;5101227;27;45578;-71
2023/12/16 14:07:16;;;;;;;;;1.33;1.00;;;;;;;;5099936;27;45309;-72
2023/12/16 14:09:41;;;;;;;;;1.00;1.00;;;;;;;;5101415;27;45360;-72
2023/12/16 14:12:07;;;;;;;;;1.00;1.00;;;;;;;;5101039;27;45498;-72
2023/12/16 14:14:32;;;;;;;;;2.00;1.00;;;;;;;;5101175;27;45312;-72
2023/12/16 14:16:57;;;;;;;;;2.00;2.00;;;;;;;;5101076;27;45572;-72
2023/12/16 14:19:23;;;;;;;;;1.33;1.00;;;;;;;;5101120;27;45401;-72
2023/12/16 14:21:48;;;;;;;;;2.00;2.00;;;;;;;;5100997;27;46276;-72
2023/12/16 14:24:14;;;;;;;;;2.75;2.00;;;;;;;;5101001;27;45500;-72